Ottertail, Minnesota
Current Conditions -  °F | °C
As of 2:53 PM on Friday 28 Nov 2014 (Local Time) from KADC Reporting Station
Broken Clouds Broken Clouds  
Wind Chill: -16°   Ceiling: 3400
Heat Index: -9°   Visibility: 10mi
Dew Point: -13°   Wind: 10mph
Humidity: 73%   Direction: 110°ESE
Pressure: 29.78"   Gusts: NA
Location:  46.43°N, 95.56°W
Report Text: KADC 282053Z AUTO 11009KT 10SM SCT017 BKN034 M09/M13 A2978 RMK AO2
Loading
Personal Weather Stations






























Interactive Weather Map New forecast layout! Learn more

10-Day Weather Forecast

Advertisements
Track Severe Weather on mobile